Aviation Digital Data Service (ADDS)

Output produced by TAFs form (0538 UTC 18 December 2014)
found at http://aviationweather.gov/adds/tafs/
 
KTEX 180535Z 1806/1906 24003KT 2SM -SN SCT003 BKN020 
     TEMPO 1807/1809 1/2SM FG VV002 
     FM181600 VRB03KT 4SM BR OVC003 
     FM182100 26005KT P6SM SCT003 BKN025 
     FM190500 15003KT P6SM BKN100